sensor_id;sensor_type;location;lat;lon;timestamp;temperature;humidity
11320;DHT22;5715;48.234;14.320;2022-10-31T00:01:35;10.20;99.90
11320;DHT22;5715;48.234;14.320;2022-10-31T00:04:24;10.20;99.90
11320;DHT22;5715;48.234;14.320;2022-10-31T00:07:12;10.20;99.90
11320;DHT22;5715;48.234;14.320;2022-10-31T00:09:59;10.20;99.90
11320;DHT22;5715;48.234;14.320;2022-10-31T00:12:47;10.20;99.90
11320;DHT22;5715;48.234;14.320;2022-10-31T00:15:39;10.20;99.90
11320;DHT22;5715;48.234;14.320;2022-10-31T00:18:27;10.20;99.90
11320;DHT22;5715;48.234;14.320;2022-10-31T00:21:14;10.20;99.90
11320;DHT22;5715;48.234;14.320;2022-10-31T00:24:03;10.20;99.90
11320;DHT22;5715;48.234;14.320;2022-10-31T00:26:51;10.20;99.90
11320;DHT22;5715;48.234;14.320;2022-10-31T00:29:38;10.30;99.90
11320;DHT22;5715;48.234;14.320;2022-10-31T00:32:28;10.30;99.90
11320;DHT22;5715;48.234;14.320;2022-10-31T00:35:17;10.30;99.90
11320;DHT22;5715;48.234;14.320;2022-10-31T00:38:05;10.30;99.90
11320;DHT22;5715;48.234;14.320;2022-10-31T00:40:52;10.30;99.90
11320;DHT22;5715;48.234;14.320;2022-10-31T00:43:40;10.30;99.90
11320;DHT22;5715;48.234;14.320;2022-10-31T00:46:28;10.30;99.90
11320;DHT22;5715;48.234;14.320;2022-10-31T00:49:16;10.30;99.90
11320;DHT22;5715;48.234;14.320;2022-10-31T00:52:03;10.40;99.90
11320;DHT22;5715;48.234;14.320;2022-10-31T00:54:51;10.40;99.90
11320;DHT22;5715;48.234;14.320;2022-10-31T00:57:38;10.30;99.90
11320;DHT22;5715;48.234;14.320;2022-10-31T01:00:26;10.40;99.90
11320;DHT22;5715;48.234;14.320;2022-10-31T01:03:14;10.40;99.90
11320;DHT22;5715;48.234;14.320;2022-10-31T01:06:05;10.40;99.90
11320;DHT22;5715;48.234;14.320;2022-10-31T01:08:57;10.30;99.90
11320;DHT22;5715;48.234;14.320;2022-10-31T01:11:45;10.40;99.90
11320;DHT22;5715;48.234;14.320;2022-10-31T01:14:32;10.40;99.90
11320;DHT22;5715;48.234;14.320;2022-10-31T01:17:20;10.40;99.90
11320;DHT22;5715;48.234;14.320;2022-10-31T01:20:09;10.40;99.90
11320;DHT22;5715;48.234;14.320;2022-10-31T01:22:59;10.40;99.90
11320;DHT22;5715;48.234;14.320;2022-10-31T01:25:46;10.40;99.90
11320;DHT22;5715;48.234;14.320;2022-10-31T01:28:36;10.40;99.90
11320;DHT22;5715;48.234;14.320;2022-10-31T01:31:28;10.40;99.90
11320;DHT22;5715;48.234;14.320;2022-10-31T01:34:18;10.40;99.90
11320;DHT22;5715;48.234;14.320;2022-10-31T01:37:05;10.40;99.90
11320;DHT22;5715;48.234;14.320;2022-10-31T01:39:53;10.40;99.90
11320;DHT22;5715;48.234;14.320;2022-10-31T01:42:40;10.40;99.90
11320;DHT22;5715;48.234;14.320;2022-10-31T01:45:28;10.40;99.90
11320;DHT22;5715;48.234;14.320;2022-10-31T01:48:17;10.40;99.90
11320;DHT22;5715;48.234;14.320;2022-10-31T01:51:09;10.40;99.90
11320;DHT22;5715;48.234;14.320;2022-10-31T01:54:03;10.40;99.90
11320;DHT22;5715;48.234;14.320;2022-10-31T01:56:56;10.40;99.90
11320;DHT22;5715;48.234;14.320;2022-10-31T01:59:48;10.40;99.90
11320;DHT22;5715;48.234;14.320;2022-10-31T02:02:40;10.40;99.90
11320;DHT22;5715;48.234;14.320;2022-10-31T02:05:29;10.50;99.90
11320;DHT22;5715;48.234;14.320;2022-10-31T02:08:28;10.50;99.90
11320;DHT22;5715;48.234;14.320;2022-10-31T02:11:20;10.50;99.90
11320;DHT22;5715;48.234;14.320;2022-10-31T02:14:08;10.50;99.90
11320;DHT22;5715;48.234;14.320;2022-10-31T02:16:56;10.50;99.90
11320;DHT22;5715;48.234;14.320;2022-10-31T02:26:03;10.50;99.90
11320;DHT22;5715;48.234;14.320;2022-10-31T02:29:30;10.50;99.90
11320;DHT22;5715;48.234;14.320;2022-10-31T02:36:19;10.50;99.90
11320;DHT22;5715;48.234;14.320;2022-10-31T02:45:42;10.40;99.90
11320;DHT22;5715;48.234;14.320;2022-10-31T02:48:38;10.50;99.90
11320;DHT22;5715;48.234;14.320;2022-10-31T02:51:29;10.40;99.90
11320;DHT22;5715;48.234;14.320;2022-10-31T02:54:25;10.40;99.90
11320;DHT22;5715;48.234;14.320;2022-10-31T02:57:15;10.40;99.90
11320;DHT22;5715;48.234;14.320;2022-10-31T03:00:08;10.40;99.90
11320;DHT22;5715;48.234;14.320;2022-10-31T03:03:10;10.40;99.90
11320;DHT22;5715;48.234;14.320;2022-10-31T03:06:41;10.30;99.90
11320;DHT22;5715;48.234;14.320;2022-10-31T03:10:13;10.40;99.90
11320;DHT22;5715;48.234;14.320;2022-10-31T03:13:32;10.40;99.90
11320;DHT22;5715;48.234;14.320;2022-10-31T03:19:23;10.30;99.90
11320;DHT22;5715;48.234;14.320;2022-10-31T03:22:15;10.30;99.90
11320;DHT22;5715;48.234;14.320;2022-10-31T03:25:05;10.30;99.90
11320;DHT22;5715;48.234;14.320;2022-10-31T03:27:55;10.30;99.90
11320;DHT22;5715;48.234;14.320;2022-10-31T03:30:46;10.30;99.90
11320;DHT22;5715;48.234;14.320;2022-10-31T03:33:38;10.30;99.90
11320;DHT22;5715;48.234;14.320;2022-10-31T03:36:31;10.30;99.90
11320;DHT22;5715;48.234;14.320;2022-10-31T03:39:22;10.20;99.90
11320;DHT22;5715;48.234;14.320;2022-10-31T03:42:15;10.20;99.90
11320;DHT22;5715;48.234;14.320;2022-10-31T03:45:14;10.20;99.90
11320;DHT22;5715;48.234;14.320;2022-10-31T03:48:08;10.20;99.90
11320;DHT22;5715;48.234;14.320;2022-10-31T03:54:43;10.20;99.90
11320;DHT22;5715;48.234;14.320;2022-10-31T03:57:53;10.30;99.90
11320;DHT22;5715;48.234;14.320;2022-10-31T04:00:52;10.30;99.90
11320;DHT22;5715;48.234;14.320;2022-10-31T04:03:43;10.30;99.90
11320;DHT22;5715;48.234;14.320;2022-10-31T04:06:34;10.30;99.90
11320;DHT22;5715;48.234;14.320;2022-10-31T04:09:26;10.30;99.90
11320;DHT22;5715;48.234;14.320;2022-10-31T04:12:16;10.20;99.90
11320;DHT22;5715;48.234;14.320;2022-10-31T04:15:06;10.20;99.90
11320;DHT22;5715;48.234;14.320;2022-10-31T04:17:58;10.10;99.90
11320;DHT22;5715;48.234;14.320;2022-10-31T04:20:47;10.10;99.90
11320;DHT22;5715;48.234;14.320;2022-10-31T04:23:37;10.10;99.90
11320;DHT22;5715;48.234;14.320;2022-10-31T04:26:24;10.30;99.90
11320;DHT22;5715;48.234;14.320;2022-10-31T04:29:12;10.10;99.90
11320;DHT22;5715;48.234;14.320;2022-10-31T04:31:59;10.10;99.90
11320;DHT22;5715;48.234;14.320;2022-10-31T04:34:47;10.20;99.90
11320;DHT22;5715;48.234;14.320;2022-10-31T04:37:34;10.20;99.90
11320;DHT22;5715;48.234;14.320;2022-10-31T04:40:22;10.20;99.90
11320;DHT22;5715;48.234;14.320;2022-10-31T04:43:09;10.20;99.90
11320;DHT22;5715;48.234;14.320;2022-10-31T04:45:57;10.20;99.90
11320;DHT22;5715;48.234;14.320;2022-10-31T04:48:44;10.20;99.90
11320;DHT22;5715;48.234;14.320;2022-10-31T04:51:32;10.20;99.90
11320;DHT22;5715;48.234;14.320;2022-10-31T04:54:19;10.20;99.90
11320;DHT22;5715;48.234;14.320;2022-10-31T04:57:07;10.30;99.90
11320;DHT22;5715;48.234;14.320;2022-10-31T04:59:54;10.20;99.90
11320;DHT22;5715;48.234;14.320;2022-10-31T05:02:45;10.20;99.90
11320;DHT22;5715;48.234;14.320;2022-10-31T05:05:34;10.20;99.90
11320;DHT22;5715;48.234;14.320;2022-10-31T05:08:22;10.20;99.90
11320;DHT22;5715;48.234;14.320;2022-10-31T05:11:09;10.20;99.90
11320;DHT22;5715;48.234;14.320;2022-10-31T05:13:57;10.20;99.90
11320;DHT22;5715;48.234;14.320;2022-10-31T05:16:44;10.10;99.90
11320;DHT22;5715;48.234;14.320;2022-10-31T05:19:32;10.10;99.90
11320;DHT22;5715;48.234;14.320;2022-10-31T05:22:19;10.10;99.90
11320;DHT22;5715;48.234;14.320;2022-10-31T05:25:07;10.00;99.90
11320;DHT22;5715;48.234;14.320;2022-10-31T05:27:56;10.00;99.90
11320;DHT22;5715;48.234;14.320;2022-10-31T05:30:44;10.00;99.90
11320;DHT22;5715;48.234;14.320;2022-10-31T05:33:32;10.00;99.90
11320;DHT22;5715;48.234;14.320;2022-10-31T05:36:19;10.00;99.90
11320;DHT22;5715;48.234;14.320;2022-10-31T05:39:07;10.00;99.90
11320;DHT22;5715;48.234;14.320;2022-10-31T05:41:54;10.00;99.90
11320;DHT22;5715;48.234;14.320;2022-10-31T05:44:42;10.00;99.90
11320;DHT22;5715;48.234;14.320;2022-10-31T05:47:29;10.00;99.90
11320;DHT22;5715;48.234;14.320;2022-10-31T05:50:17;10.10;99.90
11320;DHT22;5715;48.234;14.320;2022-10-31T05:53:05;10.10;99.90
11320;DHT22;5715;48.234;14.320;2022-10-31T05:55:53;10.10;99.90
11320;DHT22;5715;48.234;14.320;2022-10-31T05:58:40;10.10;99.90
11320;DHT22;5715;48.234;14.320;2022-10-31T06:01:28;10.10;99.90
11320;DHT22;5715;48.234;14.320;2022-10-31T06:04:15;10.10;99.90
11320;DHT22;5715;48.234;14.320;2022-10-31T06:07:03;10.10;99.90
11320;DHT22;5715;48.234;14.320;2022-10-31T06:09:50;10.10;99.90
11320;DHT22;5715;48.234;14.320;2022-10-31T06:12:38;10.10;99.90
11320;DHT22;5715;48.234;14.320;2022-10-31T06:15:27;10.10;99.90
11320;DHT22;5715;48.234;14.320;2022-10-31T06:18:15;10.10;99.90
11320;DHT22;5715;48.234;14.320;2022-10-31T06:21:02;10.20;99.90
11320;DHT22;5715;48.234;14.320;2022-10-31T06:23:50;10.20;99.90
11320;DHT22;5715;48.234;14.320;2022-10-31T06:26:37;10.20;99.90
11320;DHT22;5715;48.234;14.320;2022-10-31T06:29:25;10.20;99.90
11320;DHT22;5715;48.234;14.320;2022-10-31T06:32:13;10.30;99.90
11320;DHT22;5715;48.234;14.320;2022-10-31T06:35:01;10.30;99.90
11320;DHT22;5715;48.234;14.320;2022-10-31T06:37:53;10.30;99.90
11320;DHT22;5715;48.234;14.320;2022-10-31T06:40:41;10.20;99.90
11320;DHT22;5715;48.234;14.320;2022-10-31T06:43:29;10.30;99.90
11320;DHT22;5715;48.234;14.320;2022-10-31T06:46:16;10.20;99.90
11320;DHT22;5715;48.234;14.320;2022-10-31T06:49:04;10.20;99.90
11320;DHT22;5715;48.234;14.320;2022-10-31T06:51:51;10.20;99.90
11320;DHT22;5715;48.234;14.320;2022-10-31T06:54:39;10.20;99.90
11320;DHT22;5715;48.234;14.320;2022-10-31T06:57:26;10.20;99.90
11320;DHT22;5715;48.234;14.320;2022-10-31T07:00:14;10.20;99.90
11320;DHT22;5715;48.234;14.320;2022-10-31T07:03:04;10.20;99.90
11320;DHT22;5715;48.234;14.320;2022-10-31T07:05:55;10.20;99.90
11320;DHT22;5715;48.234;14.320;2022-10-31T07:08:43;10.30;99.90
11320;DHT22;5715;48.234;14.320;2022-10-31T07:11:31;10.30;99.90
11320;DHT22;5715;48.234;14.320;2022-10-31T07:14:18;10.40;99.90
11320;DHT22;5715;48.234;14.320;2022-10-31T07:17:06;10.40;99.90
11320;DHT22;5715;48.234;14.320;2022-10-31T07:19:53;10.30;99.90
11320;DHT22;5715;48.234;14.320;2022-10-31T07:22:41;10.40;99.90
11320;DHT22;5715;48.234;14.320;2022-10-31T07:25:34;10.50;99.90
11320;DHT22;5715;48.234;14.320;2022-10-31T07:28:21;10.60;99.90
11320;DHT22;5715;48.234;14.320;2022-10-31T07:31:09;10.60;99.90
11320;DHT22;5715;48.234;14.320;2022-10-31T07:33:56;10.60;99.90
11320;DHT22;5715;48.234;14.320;2022-10-31T07:36:44;10.70;99.90
11320;DHT22;5715;48.234;14.320;2022-10-31T07:39:31;10.60;99.90
11320;DHT22;5715;48.234;14.320;2022-10-31T07:42:19;10.60;99.90
11320;DHT22;5715;48.234;14.320;2022-10-31T07:45:09;10.70;99.90
11320;DHT22;5715;48.234;14.320;2022-10-31T07:47:58;10.70;99.90
11320;DHT22;5715;48.234;14.320;2022-10-31T07:50:46;10.70;99.90
11320;DHT22;5715;48.234;14.320;2022-10-31T07:53:34;10.70;99.90
11320;DHT22;5715;48.234;14.320;2022-10-31T07:56:21;10.70;99.90
11320;DHT22;5715;48.234;14.320;2022-10-31T07:59:09;10.80;99.90
11320;DHT22;5715;48.234;14.320;2022-10-31T08:01:56;10.70;99.90
11320;DHT22;5715;48.234;14.320;2022-10-31T08:04:44;10.70;99.90
11320;DHT22;5715;48.234;14.320;2022-10-31T08:07:36;10.70;99.90
11320;DHT22;5715;48.234;14.320;2022-10-31T08:10:25;10.80;99.90
11320;DHT22;5715;48.234;14.320;2022-10-31T08:13:14;10.80;99.90
11320;DHT22;5715;48.234;14.320;2022-10-31T08:16:01;10.80;99.90
11320;DHT22;5715;48.234;14.320;2022-10-31T08:18:51;10.90;99.90
11320;DHT22;5715;48.234;14.320;2022-10-31T08:21:40;10.90;99.90
11320;DHT22;5715;48.234;14.320;2022-10-31T08:24:28;10.90;99.90
11320;DHT22;5715;48.234;14.320;2022-10-31T08:27:15;11.00;99.90
11320;DHT22;5715;48.234;14.320;2022-10-31T08:30:03;11.10;99.90
11320;DHT22;5715;48.234;14.320;2022-10-31T08:33:17;11.30;99.90
11320;DHT22;5715;48.234;14.320;2022-10-31T08:36:06;11.30;99.90
11320;DHT22;5715;48.234;14.320;2022-10-31T08:38:55;11.30;99.90
11320;DHT22;5715;48.234;14.320;2022-10-31T08:41:47;11.40;99.90
11320;DHT22;5715;48.234;14.320;2022-10-31T08:44:35;11.40;99.90
11320;DHT22;5715;48.234;14.320;2022-10-31T08:47:22;11.30;99.90
11320;DHT22;5715;48.234;14.320;2022-10-31T08:50:10;11.40;99.90
11320;DHT22;5715;48.234;14.320;2022-10-31T08:53:02;11.30;99.90
11320;DHT22;5715;48.234;14.320;2022-10-31T08:55:58;11.40;99.90
11320;DHT22;5715;48.234;14.320;2022-10-31T08:58:45;11.40;99.90
11320;DHT22;5715;48.234;14.320;2022-10-31T09:01:33;11.30;99.90
11320;DHT22;5715;48.234;14.320;2022-10-31T09:04:20;11.50;99.90
11320;DHT22;5715;48.234;14.320;2022-10-31T09:07:08;11.60;99.90
11320;DHT22;5715;48.234;14.320;2022-10-31T09:10:10;11.70;99.90
11320;DHT22;5715;48.234;14.320;2022-10-31T09:13:01;11.70;99.90
11320;DHT22;5715;48.234;14.320;2022-10-31T09:15:56;11.60;99.90
11320;DHT22;5715;48.234;14.320;2022-10-31T09:18:45;11.50;99.90
11320;DHT22;5715;48.234;14.320;2022-10-31T09:21:33;11.50;99.90
11320;DHT22;5715;48.234;14.320;2022-10-31T09:24:20;11.40;99.90
11320;DHT22;5715;48.234;14.320;2022-10-31T09:27:08;11.40;99.90
11320;DHT22;5715;48.234;14.320;2022-10-31T09:29:56;11.50;99.90
11320;DHT22;5715;48.234;14.320;2022-10-31T09:32:43;11.40;99.90
11320;DHT22;5715;48.234;14.320;2022-10-31T09:35:31;11.50;99.90
11320;DHT22;5715;48.234;14.320;2022-10-31T09:38:20;11.60;99.90
11320;DHT22;5715;48.234;14.320;2022-10-31T09:50:58;11.60;99.90
11320;DHT22;5715;48.234;14.320;2022-10-31T09:56:59;11.70;99.90
11320;DHT22;5715;48.234;14.320;2022-10-31T09:59:49;11.70;99.90
11320;DHT22;5715;48.234;14.320;2022-10-31T10:02:43;11.70;99.90
11320;DHT22;5715;48.234;14.320;2022-10-31T10:05:46;11.90;99.90
11320;DHT22;5715;48.234;14.320;2022-10-31T10:08:41;11.80;99.90
11320;DHT22;5715;48.234;14.320;2022-10-31T10:15:27;12.00;99.90
11320;DHT22;5715;48.234;14.320;2022-10-31T10:21:41;12.40;99.90
11320;DHT22;5715;48.234;14.320;2022-10-31T10:24:53;12.40;99.90
11320;DHT22;5715;48.234;14.320;2022-10-31T10:28:23;12.40;99.90
11320;DHT22;5715;48.234;14.320;2022-10-31T10:31:26;12.30;99.90
11320;DHT22;5715;48.234;14.320;2022-10-31T10:34:26;12.40;99.90
11320;DHT22;5715;48.234;14.320;2022-10-31T10:40:44;12.70;99.90
11320;DHT22;5715;48.234;14.320;2022-10-31T10:43:37;13.00;99.90
11320;DHT22;5715;48.234;14.320;2022-10-31T10:46:43;13.10;99.90
11320;DHT22;5715;48.234;14.320;2022-10-31T10:49:57;13.10;99.90
11320;DHT22;5715;48.234;14.320;2022-10-31T10:59:46;13.20;99.90
11320;DHT22;5715;48.234;14.320;2022-10-31T11:02:34;13.30;99.90
11320;DHT22;5715;48.234;14.320;2022-10-31T11:05:26;13.50;99.90
11320;DHT22;5715;48.234;14.320;2022-10-31T11:08:32;13.50;99.90
11320;DHT22;5715;48.234;14.320;2022-10-31T11:11:27;13.40;99.90
11320;DHT22;5715;48.234;14.320;2022-10-31T11:14:18;13.40;99.90
11320;DHT22;5715;48.234;14.320;2022-10-31T11:17:31;13.40;99.90
11320;DHT22;5715;48.234;14.320;2022-10-31T11:23:21;13.40;99.90
11320;DHT22;5715;48.234;14.320;2022-10-31T11:26:19;13.50;99.90
11320;DHT22;5715;48.234;14.320;2022-10-31T11:29:22;13.40;99.90
11320;DHT22;5715;48.234;14.320;2022-10-31T11:32:24;13.60;99.90
11320;DHT22;5715;48.234;14.320;2022-10-31T11:35:16;13.70;99.90
11320;DHT22;5715;48.234;14.320;2022-10-31T11:38:05;13.90;99.90
11320;DHT22;5715;48.234;14.320;2022-10-31T11:41:06;14.00;99.90
11320;DHT22;5715;48.234;14.320;2022-10-31T11:44:44;14.10;99.90
11320;DHT22;5715;48.234;14.320;2022-10-31T11:47:20;14.10;99.90
11320;DHT22;5715;48.234;14.320;2022-10-31T11:50:39;14.30;99.90
11320;DHT22;5715;48.234;14.320;2022-10-31T11:53:32;14.20;99.90
11320;DHT22;5715;48.234;14.320;2022-10-31T11:56:21;14.20;99.90
11320;DHT22;5715;48.234;14.320;2022-10-31T12:02:19;14.20;99.90
11320;DHT22;5715;48.234;14.320;2022-10-31T12:05:27;14.20;99.90
11320;DHT22;5715;48.234;14.320;2022-10-31T12:08:19;14.20;99.90
11320;DHT22;5715;48.234;14.320;2022-10-31T12:14:34;14.30;99.90
11320;DHT22;5715;48.234;14.320;2022-10-31T12:17:46;14.40;99.90
11320;DHT22;5715;48.234;14.320;2022-10-31T12:24:18;14.40;99.90
11320;DHT22;5715;48.234;14.320;2022-10-31T12:41:34;14.70;99.90
11320;DHT22;5715;48.234;14.320;2022-10-31T12:54:31;15.00;99.90
11320;DHT22;5715;48.234;14.320;2022-10-31T12:57:33;15.10;99.90
11320;DHT22;5715;48.234;14.320;2022-10-31T13:00:27;15.10;99.90
11320;DHT22;5715;48.234;14.320;2022-10-31T13:06:45;15.20;99.90
11320;DHT22;5715;48.234;14.320;2022-10-31T13:09:46;15.20;99.90
11320;DHT22;5715;48.234;14.320;2022-10-31T13:12:41;15.20;99.90
11320;DHT22;5715;48.234;14.320;2022-10-31T13:15:35;15.30;99.90
11320;DHT22;5715;48.234;14.320;2022-10-31T13:22:22;15.30;99.90
11320;DHT22;5715;48.234;14.320;2022-10-31T13:31:41;15.70;99.90
11320;DHT22;5715;48.234;14.320;2022-10-31T13:34:39;15.60;99.90
11320;DHT22;5715;48.234;14.320;2022-10-31T13:37:32;15.60;99.90
11320;DHT22;5715;48.234;14.320;2022-10-31T13:40:41;15.50;99.90
11320;DHT22;5715;48.234;14.320;2022-10-31T13:47:02;15.40;99.90
11320;DHT22;5715;48.234;14.320;2022-10-31T13:49:50;15.40;99.90
11320;DHT22;5715;48.234;14.320;2022-10-31T13:52:38;15.40;99.90
11320;DHT22;5715;48.234;14.320;2022-10-31T13:55:43;15.40;99.90
11320;DHT22;5715;48.234;14.320;2022-10-31T13:58:33;15.40;99.90
11320;DHT22;5715;48.234;14.320;2022-10-31T14:01:21;15.30;99.90
11320;DHT22;5715;48.234;14.320;2022-10-31T14:04:16;15.20;99.90
11320;DHT22;5715;48.234;14.320;2022-10-31T14:07:14;15.20;99.90
11320;DHT22;5715;48.234;14.320;2022-10-31T14:13:24;15.10;99.90
11320;DHT22;5715;48.234;14.320;2022-10-31T14:16:23;15.00;99.90
11320;DHT22;5715;48.234;14.320;2022-10-31T14:19:18;14.90;99.90
11320;DHT22;5715;48.234;14.320;2022-10-31T14:22:20;14.80;99.90
11320;DHT22;5715;48.234;14.320;2022-10-31T14:25:30;14.80;99.90
11320;DHT22;5715;48.234;14.320;2022-10-31T14:28:33;14.70;99.90
11320;DHT22;5715;48.234;14.320;2022-10-31T14:34:37;14.70;99.90
11320;DHT22;5715;48.234;14.320;2022-10-31T14:50:59;14.70;99.90
11320;DHT22;5715;48.234;14.320;2022-10-31T14:53:55;14.70;99.90
11320;DHT22;5715;48.234;14.320;2022-10-31T14:56:55;14.60;99.90
11320;DHT22;5715;48.234;14.320;2022-10-31T14:59:52;14.50;99.90
11320;DHT22;5715;48.234;14.320;2022-10-31T15:03:16;14.40;99.90
11320;DHT22;5715;48.234;14.320;2022-10-31T15:06:13;14.40;99.90
11320;DHT22;5715;48.234;14.320;2022-10-31T15:09:03;14.40;99.90
11320;DHT22;5715;48.234;14.320;2022-10-31T15:11:51;14.40;99.90
11320;DHT22;5715;48.234;14.320;2022-10-31T15:14:38;14.30;99.90
11320;DHT22;5715;48.234;14.320;2022-10-31T15:17:26;14.30;99.90
11320;DHT22;5715;48.234;14.320;2022-10-31T15:20:19;14.20;99.90
11320;DHT22;5715;48.234;14.320;2022-10-31T15:23:14;14.10;99.90
11320;DHT22;5715;48.234;14.320;2022-10-31T15:26:05;13.90;99.90
11320;DHT22;5715;48.234;14.320;2022-10-31T15:29:21;13.90;99.90
11320;DHT22;5715;48.234;14.320;2022-10-31T15:32:20;13.80;99.90
11320;DHT22;5715;48.234;14.320;2022-10-31T15:35:14;13.70;99.90
11320;DHT22;5715;48.234;14.320;2022-10-31T15:38:12;13.50;99.90
11320;DHT22;5715;48.234;14.320;2022-10-31T15:41:18;13.40;99.90
11320;DHT22;5715;48.234;14.320;2022-10-31T15:44:14;13.20;99.90
11320;DHT22;5715;48.234;14.320;2022-10-31T15:47:17;13.20;99.90
11320;DHT22;5715;48.234;14.320;2022-10-31T15:50:41;13.10;99.90
11320;DHT22;5715;48.234;14.320;2022-10-31T15:53:36;13.00;99.90
11320;DHT22;5715;48.234;14.320;2022-10-31T15:56:31;12.90;99.90
11320;DHT22;5715;48.234;14.320;2022-10-31T15:59:22;12.80;99.90
11320;DHT22;5715;48.234;14.320;2022-10-31T16:02:14;12.80;99.90
11320;DHT22;5715;48.234;14.320;2022-10-31T16:05:18;12.80;99.90
11320;DHT22;5715;48.234;14.320;2022-10-31T16:08:23;12.80;99.90
11320;DHT22;5715;48.234;14.320;2022-10-31T16:17:17;12.60;99.90
11320;DHT22;5715;48.234;14.320;2022-10-31T16:20:27;12.50;99.90
11320;DHT22;5715;48.234;14.320;2022-10-31T16:23:19;12.50;99.90
11320;DHT22;5715;48.234;14.320;2022-10-31T16:26:09;12.40;99.90
11320;DHT22;5715;48.234;14.320;2022-10-31T16:28:58;12.30;99.90
11320;DHT22;5715;48.234;14.320;2022-10-31T16:31:51;12.30;99.90
11320;DHT22;5715;48.234;14.320;2022-10-31T16:34:39;12.30;99.90
11320;DHT22;5715;48.234;14.320;2022-10-31T16:37:26;12.20;99.90
11320;DHT22;5715;48.234;14.320;2022-10-31T16:40:14;12.20;99.90
11320;DHT22;5715;48.234;14.320;2022-10-31T16:43:02;12.10;99.90
11320;DHT22;5715;48.234;14.320;2022-10-31T16:45:51;12.10;99.90
11320;DHT22;5715;48.234;14.320;2022-10-31T16:48:39;12.10;99.90
11320;DHT22;5715;48.234;14.320;2022-10-31T16:51:27;12.10;99.90
11320;DHT22;5715;48.234;14.320;2022-10-31T16:54:14;12.00;99.90
11320;DHT22;5715;48.234;14.320;2022-10-31T16:57:03;11.80;99.90
11320;DHT22;5715;48.234;14.320;2022-10-31T16:59:52;12.10;99.90
11320;DHT22;5715;48.234;14.320;2022-10-31T17:02:43;12.00;99.90
11320;DHT22;5715;48.234;14.320;2022-10-31T17:05:35;12.00;99.90
11320;DHT22;5715;48.234;14.320;2022-10-31T17:08:24;12.10;99.90
11320;DHT22;5715;48.234;14.320;2022-10-31T17:11:18;12.20;99.90
11320;DHT22;5715;48.234;14.320;2022-10-31T17:14:09;12.10;99.90
11320;DHT22;5715;48.234;14.320;2022-10-31T17:16:57;12.10;99.90
11320;DHT22;5715;48.234;14.320;2022-10-31T17:19:45;12.10;99.90
11320;DHT22;5715;48.234;14.320;2022-10-31T17:22:32;12.10;99.90
11320;DHT22;5715;48.234;14.320;2022-10-31T17:25:22;12.10;99.90
11320;DHT22;5715;48.234;14.320;2022-10-31T17:28:15;12.10;99.90
11320;DHT22;5715;48.234;14.320;2022-10-31T17:31:02;12.20;99.90
11320;DHT22;5715;48.234;14.320;2022-10-31T17:33:50;12.20;99.90
11320;DHT22;5715;48.234;14.320;2022-10-31T17:36:50;12.20;99.90
11320;DHT22;5715;48.234;14.320;2022-10-31T17:39:39;12.20;99.90
11320;DHT22;5715;48.234;14.320;2022-10-31T17:42:26;12.20;99.90
11320;DHT22;5715;48.234;14.320;2022-10-31T17:45:14;12.20;99.90
11320;DHT22;5715;48.234;14.320;2022-10-31T17:48:01;12.20;99.90
11320;DHT22;5715;48.234;14.320;2022-10-31T17:50:49;12.10;99.90
11320;DHT22;5715;48.234;14.320;2022-10-31T17:53:36;12.20;99.90
11320;DHT22;5715;48.234;14.320;2022-10-31T17:56:24;12.10;99.90
11320;DHT22;5715;48.234;14.320;2022-10-31T17:59:11;12.10;99.90
11320;DHT22;5715;48.234;14.320;2022-10-31T18:01:59;12.00;99.90
11320;DHT22;5715;48.234;14.320;2022-10-31T18:04:47;12.00;99.90
11320;DHT22;5715;48.234;14.320;2022-10-31T18:07:35;12.00;99.90
11320;DHT22;5715;48.234;14.320;2022-10-31T18:10:22;11.90;99.90
11320;DHT22;5715;48.234;14.320;2022-10-31T18:13:10;11.90;99.90
11320;DHT22;5715;48.234;14.320;2022-10-31T18:15:57;11.90;99.90
11320;DHT22;5715;48.234;14.320;2022-10-31T18:18:49;11.80;99.90
11320;DHT22;5715;48.234;14.320;2022-10-31T18:21:39;11.60;99.90
11320;DHT22;5715;48.234;14.320;2022-10-31T18:24:26;11.80;99.90
11320;DHT22;5715;48.234;14.320;2022-10-31T18:27:14;11.70;99.90
11320;DHT22;5715;48.234;14.320;2022-10-31T18:30:02;11.60;99.90
11320;DHT22;5715;48.234;14.320;2022-10-31T18:32:50;11.70;99.90
11320;DHT22;5715;48.234;14.320;2022-10-31T18:35:38;11.60;99.90
11320;DHT22;5715;48.234;14.320;2022-10-31T18:38:26;11.60;99.90
11320;DHT22;5715;48.234;14.320;2022-10-31T18:41:14;11.60;99.90
11320;DHT22;5715;48.234;14.320;2022-10-31T18:44:02;11.60;99.90
11320;DHT22;5715;48.234;14.320;2022-10-31T18:46:50;11.60;99.90
11320;DHT22;5715;48.234;14.320;2022-10-31T18:49:38;11.60;99.90
11320;DHT22;5715;48.234;14.320;2022-10-31T18:52:25;11.60;99.90
11320;DHT22;5715;48.234;14.320;2022-10-31T18:55:13;11.60;99.90
11320;DHT22;5715;48.234;14.320;2022-10-31T18:58:00;11.60;99.90
11320;DHT22;5715;48.234;14.320;2022-10-31T19:00:48;11.60;99.90
11320;DHT22;5715;48.234;14.320;2022-10-31T19:03:36;11.70;99.90
11320;DHT22;5715;48.234;14.320;2022-10-31T19:06:25;11.70;99.90
11320;DHT22;5715;48.234;14.320;2022-10-31T19:09:13;11.60;99.90
11320;DHT22;5715;48.234;14.320;2022-10-31T19:12:01;11.60;99.90
11320;DHT22;5715;48.234;14.320;2022-10-31T19:14:48;11.60;99.90
11320;DHT22;5715;48.234;14.320;2022-10-31T19:17:36;11.60;99.90
11320;DHT22;5715;48.234;14.320;2022-10-31T19:20:23;11.60;99.90
11320;DHT22;5715;48.234;14.320;2022-10-31T19:23:11;11.60;99.90
11320;DHT22;5715;48.234;14.320;2022-10-31T19:25:58;11.60;99.90
11320;DHT22;5715;48.234;14.320;2022-10-31T19:28:48;11.60;99.90
11320;DHT22;5715;48.234;14.320;2022-10-31T19:31:35;11.60;99.90
11320;DHT22;5715;48.234;14.320;2022-10-31T19:34:23;11.70;99.90
11320;DHT22;5715;48.234;14.320;2022-10-31T19:37:10;11.70;99.90
11320;DHT22;5715;48.234;14.320;2022-10-31T19:39:58;11.70;99.90
11320;DHT22;5715;48.234;14.320;2022-10-31T19:42:45;11.70;99.90
11320;DHT22;5715;48.234;14.320;2022-10-31T19:45:33;11.70;99.90
11320;DHT22;5715;48.234;14.320;2022-10-31T19:48:20;11.70;99.90
11320;DHT22;5715;48.234;14.320;2022-10-31T19:51:10;11.70;99.90
11320;DHT22;5715;48.234;14.320;2022-10-31T19:53:59;11.70;99.90
11320;DHT22;5715;48.234;14.320;2022-10-31T19:56:47;11.70;99.90
11320;DHT22;5715;48.234;14.320;2022-10-31T19:59:34;11.70;99.90
11320;DHT22;5715;48.234;14.320;2022-10-31T20:02:25;11.70;99.90
11320;DHT22;5715;48.234;14.320;2022-10-31T20:05:13;11.70;99.90
11320;DHT22;5715;48.234;14.320;2022-10-31T20:08:00;11.70;99.90
11320;DHT22;5715;48.234;14.320;2022-10-31T20:11:01;11.80;99.90
11320;DHT22;5715;48.234;14.320;2022-10-31T20:13:49;11.80;99.90
11320;DHT22;5715;48.234;14.320;2022-10-31T20:16:37;11.80;99.90
11320;DHT22;5715;48.234;14.320;2022-10-31T20:19:25;11.70;99.90